createdAt,value
2022-09-09T00:00:37.832Z,0.00
2022-09-09T00:01:37.823Z,0.00
2022-09-09T00:02:37.907Z,0.00
2022-09-09T00:03:37.837Z,0.00
2022-09-09T00:04:37.791Z,0.00
2022-09-09T00:05:37.763Z,0.00
2022-09-09T00:06:37.751Z,0.00
2022-09-09T00:07:37.739Z,0.00
2022-09-09T00:08:37.731Z,0.00
2022-09-09T00:09:37.732Z,0.00
2022-09-09T00:10:37.751Z,0.00
2022-09-09T00:11:37.699Z,0.00
2022-09-09T00:12:37.694Z,0.00
2022-09-09T00:13:37.671Z,0.00
2022-09-09T00:14:37.683Z,0.00
2022-09-09T00:15:37.694Z,0.00
2022-09-09T00:16:37.651Z,0.00
2022-09-09T00:17:37.631Z,0.00
2022-09-09T00:18:37.632Z,0.00
2022-09-09T00:19:37.615Z,0.00
2022-09-09T00:20:37.623Z,0.00
2022-09-09T00:21:37.586Z,0.00
2022-09-09T00:22:37.583Z,0.00
2022-09-09T00:23:37.564Z,0.00
2022-09-09T00:24:37.555Z,0.00
2022-09-09T00:25:37.555Z,0.00
2022-09-09T00:26:37.544Z,0.00
2022-09-09T00:27:37.516Z,0.00
2022-09-09T00:28:37.507Z,0.00
2022-09-09T00:29:37.507Z,0.00
2022-09-09T00:30:37.544Z,0.00
2022-09-09T00:31:37.483Z,0.00
2022-09-09T00:32:37.469Z,0.00
2022-09-09T00:33:37.455Z,0.00
2022-09-09T00:34:37.475Z,0.00
2022-09-09T00:35:37.428Z,0.00
2022-09-09T00:36:37.435Z,0.00
2022-09-09T00:37:37.403Z,0.00
2022-09-09T00:38:37.395Z,0.00
2022-09-09T00:39:37.438Z,0.00
2022-09-09T00:40:37.409Z,0.00
2022-09-09T00:41:37.364Z,0.00
2022-09-09T00:42:37.356Z,0.00
2022-09-09T00:43:37.335Z,0.00
2022-09-09T00:44:37.340Z,0.00
2022-09-09T00:45:37.351Z,0.00
2022-09-09T00:46:37.359Z,0.00
2022-09-09T00:47:37.308Z,0.00
2022-09-09T00:48:37.288Z,0.00
2022-09-09T00:49:37.284Z,0.00
2022-09-09T00:50:37.736Z,0.00
2022-09-09T00:51:37.260Z,0.00
2022-09-09T00:52:37.276Z,0.00
2022-09-09T00:53:37.228Z,0.00
2022-09-09T00:54:37.229Z,0.00
2022-09-09T00:55:37.208Z,0.00
2022-09-09T00:56:37.208Z,0.00
2022-09-09T00:57:37.182Z,0.00
2022-09-09T00:58:37.200Z,0.00
2022-09-09T00:59:37.164Z,0.00
2022-09-09T01:00:37.185Z,0.00
2022-09-09T01:01:37.208Z,0.00
2022-09-09T01:02:37.181Z,0.00
2022-09-09T01:03:37.120Z,0.00
2022-09-09T01:04:37.122Z,0.00
2022-09-09T01:05:37.112Z,0.00
2022-09-09T01:06:37.100Z,0.00
2022-09-09T01:07:37.072Z,0.00
2022-09-09T01:08:37.071Z,0.00
2022-09-09T01:09:37.048Z,0.00
2022-09-09T01:10:37.360Z,0.00
2022-09-09T01:11:37.042Z,0.00
2022-09-09T01:12:37.061Z,0.00
2022-09-09T01:13:36.999Z,0.00
2022-09-09T01:14:37.035Z,0.00
2022-09-09T01:15:36.991Z,0.00
2022-09-09T01:16:37.071Z,0.00
2022-09-09T01:17:36.968Z,0.00
2022-09-09T01:18:37.140Z,0.00
2022-09-09T01:19:36.933Z,0.00
2022-09-09T01:20:36.941Z,0.00
2022-09-09T01:21:36.932Z,0.00
2022-09-09T01:22:36.912Z,0.00
2022-09-09T01:23:36.900Z,0.00
2022-09-09T01:24:36.913Z,0.00
2022-09-09T01:25:36.872Z,0.00
2022-09-09T01:26:36.876Z,0.00
2022-09-09T01:27:36.854Z,0.00
2022-09-09T01:28:36.901Z,0.00
2022-09-09T01:29:36.852Z,0.00
2022-09-09T01:30:36.929Z,0.00
2022-09-09T01:31:36.816Z,0.00
2022-09-09T01:32:36.805Z,0.00
2022-09-09T01:33:36.784Z,0.00
2022-09-09T01:34:36.805Z,0.00
2022-09-09T01:35:36.765Z,0.00
2022-09-09T01:36:36.766Z,0.00
2022-09-09T01:37:36.736Z,0.00
2022-09-09T01:38:36.858Z,0.00
2022-09-09T01:39:36.805Z,0.00
2022-09-09T01:40:36.725Z,0.00
2022-09-09T01:41:36.700Z,0.00
2022-09-09T01:42:36.704Z,0.00
2022-09-09T01:43:36.678Z,0.00
2022-09-09T01:44:36.685Z,0.00
2022-09-09T01:45:36.675Z,0.00
2022-09-09T01:46:36.659Z,0.00
2022-09-09T01:47:36.645Z,0.00
2022-09-09T01:48:36.748Z,0.00
2022-09-09T01:49:36.632Z,0.00
2022-09-09T01:50:36.605Z,0.00
2022-09-09T01:51:36.597Z,0.00
2022-09-09T01:52:36.589Z,0.00
2022-09-09T01:53:36.567Z,0.00
2022-09-09T01:54:36.564Z,0.00
2022-09-09T01:55:36.557Z,0.00
2022-09-09T01:56:36.544Z,0.00
2022-09-09T01:57:36.518Z,0.00
2022-09-09T01:58:36.672Z,0.00
2022-09-09T01:59:36.497Z,0.00
2022-09-09T02:00:36.509Z,0.00
2022-09-09T02:01:36.524Z,0.00
2022-09-09T02:02:36.514Z,0.00
2022-09-09T02:03:36.458Z,0.00
2022-09-09T02:04:36.449Z,0.00
2022-09-09T02:05:36.446Z,0.00
2022-09-09T02:06:36.434Z,0.00
2022-09-09T02:07:36.425Z,0.00
2022-09-09T02:08:36.548Z,0.00
2022-09-09T02:09:36.405Z,0.00
2022-09-09T02:10:36.401Z,0.00
2022-09-09T02:11:36.369Z,0.00
2022-09-09T02:12:36.378Z,0.00
2022-09-09T02:13:36.353Z,0.00
2022-09-09T02:14:36.349Z,0.00
2022-09-09T02:15:36.322Z,0.00
2022-09-09T02:16:36.372Z,0.00
2022-09-09T02:17:36.304Z,0.00
2022-09-09T02:18:36.359Z,0.00
2022-09-09T02:19:36.302Z,0.00
2022-09-09T02:20:36.281Z,0.00
2022-09-09T02:21:36.281Z,0.00
2022-09-09T02:22:36.257Z,0.00
2022-09-09T02:23:36.230Z,0.00
2022-09-09T02:24:36.242Z,0.00
2022-09-09T02:25:36.221Z,0.00
2022-09-09T02:26:36.351Z,0.00
2022-09-09T02:27:36.190Z,0.00
2022-09-09T02:28:36.417Z,0.00
2022-09-09T02:29:36.163Z,0.00
2022-09-09T02:30:36.217Z,0.00
2022-09-09T02:31:36.137Z,0.00
2022-09-09T02:32:36.165Z,0.00
2022-09-09T02:33:36.121Z,0.00
2022-09-09T02:34:36.122Z,0.00
2022-09-09T02:35:36.119Z,0.00
2022-09-09T02:36:36.101Z,0.00
2022-09-09T02:37:36.092Z,0.00
2022-09-09T02:38:36.310Z,0.00
2022-09-09T02:39:36.081Z,0.00
2022-09-09T02:40:36.053Z,0.00
2022-09-09T02:41:36.035Z,0.00
2022-09-09T02:42:36.053Z,0.00
2022-09-09T02:43:36.021Z,0.00
2022-09-09T02:44:36.014Z,0.00
2022-09-09T02:45:36.023Z,0.00
2022-09-09T02:46:35.994Z,0.00
2022-09-09T02:47:35.973Z,0.00
2022-09-09T02:48:36.077Z,0.00
2022-09-09T02:49:35.945Z,0.00
2022-09-09T02:50:35.945Z,0.00
2022-09-09T02:51:35.921Z,0.00
2022-09-09T02:52:35.953Z,0.00
2022-09-09T02:53:35.903Z,0.00
2022-09-09T02:54:35.898Z,0.00
2022-09-09T02:55:35.882Z,0.00
2022-09-09T02:56:35.898Z,0.00
2022-09-09T02:57:35.866Z,0.00
2022-09-09T02:58:35.918Z,0.00
2022-09-09T02:59:35.887Z,0.00
2022-09-09T03:00:35.834Z,0.00
2022-09-09T03:01:35.933Z,0.00
2022-09-09T03:02:35.898Z,0.00
2022-09-09T03:03:35.797Z,0.00
2022-09-09T03:04:35.782Z,0.00
2022-09-09T03:05:35.782Z,0.00
2022-09-09T03:06:35.758Z,0.00
2022-09-09T03:07:35.783Z,0.00
2022-09-09T03:08:35.897Z,0.00
2022-09-09T03:09:35.863Z,0.00
2022-09-09T03:10:35.720Z,0.00
2022-09-09T03:11:35.711Z,0.00
2022-09-09T03:12:35.698Z,0.00
2022-09-09T03:13:35.777Z,0.00
2022-09-09T03:14:35.730Z,0.00
2022-09-09T03:15:35.746Z,0.00
2022-09-09T03:16:35.869Z,0.00
2022-09-09T03:17:35.746Z,0.00
2022-09-09T03:18:35.832Z,0.00
2022-09-09T03:19:36.018Z,0.00
2022-09-09T03:20:35.811Z,0.00
2022-09-09T03:21:35.750Z,0.00
2022-09-09T03:22:35.770Z,0.00
2022-09-09T03:23:35.782Z,0.00
2022-09-09T03:24:35.790Z,0.00
2022-09-09T03:25:35.674Z,0.00
2022-09-09T03:26:35.748Z,0.00
2022-09-09T03:27:35.653Z,0.00
2022-09-09T03:28:35.700Z,0.00
2022-09-09T03:29:35.821Z,0.00
2022-09-09T03:30:35.490Z,0.00
2022-09-09T03:31:35.536Z,0.00
2022-09-09T03:32:35.470Z,0.00
2022-09-09T03:33:35.502Z,0.00
2022-09-09T03:34:35.462Z,0.00
2022-09-09T03:35:35.459Z,0.00
2022-09-09T03:36:35.418Z,0.00
2022-09-09T03:37:35.430Z,0.00
2022-09-09T03:38:35.593Z,0.00
2022-09-09T03:39:35.865Z,0.00
2022-09-09T03:40:35.399Z,0.00
2022-09-09T03:41:35.413Z,0.00
2022-09-09T03:42:35.359Z,0.00
2022-09-09T03:43:35.364Z,0.00
2022-09-09T03:44:35.359Z,0.00
2022-09-09T03:45:35.446Z,0.00
2022-09-09T03:46:35.321Z,0.00
2022-09-09T03:47:35.311Z,0.00
2022-09-09T03:48:35.372Z,0.00
2022-09-09T03:49:35.292Z,0.00
2022-09-09T03:50:35.283Z,0.00
2022-09-09T03:51:35.276Z,0.00
2022-09-09T03:52:35.247Z,0.00
2022-09-09T03:53:35.243Z,0.00
2022-09-09T03:54:35.232Z,0.00
2022-09-09T03:55:35.245Z,0.00
2022-09-09T03:56:35.223Z,0.00
2022-09-09T03:57:35.199Z,0.00
2022-09-09T03:58:35.335Z,0.00
2022-09-09T03:59:35.175Z,0.00
2022-09-09T04:00:35.163Z,0.00
2022-09-09T04:01:35.228Z,0.00
2022-09-09T04:02:35.235Z,0.00
2022-09-09T04:03:35.123Z,0.00
2022-09-09T04:04:35.116Z,0.00
2022-09-09T04:05:35.115Z,0.00
2022-09-09T04:06:35.106Z,0.00
2022-09-09T04:07:35.083Z,0.00
2022-09-09T04:08:35.354Z,0.00
2022-09-09T04:09:35.068Z,0.00
2022-09-09T04:10:35.048Z,0.00
2022-09-09T04:11:35.067Z,0.00
2022-09-09T04:12:35.028Z,0.00
2022-09-09T04:13:35.124Z,0.00
2022-09-09T04:14:35.056Z,0.00
2022-09-09T04:15:35.130Z,0.00
2022-09-09T04:16:35.218Z,0.00
2022-09-09T04:17:35.086Z,0.00
2022-09-09T04:18:35.219Z,0.00
2022-09-09T04:19:35.210Z,0.00
2022-09-09T04:20:34.938Z,0.00
2022-09-09T04:21:34.945Z,0.00
2022-09-09T04:22:34.914Z,0.00
2022-09-09T04:23:34.906Z,0.00
2022-09-09T04:24:34.890Z,0.00
2022-09-09T04:25:34.885Z,0.00
2022-09-09T04:26:35.011Z,0.00
2022-09-09T04:27:34.859Z,0.00
2022-09-09T04:28:34.943Z,0.00
2022-09-09T04:29:34.859Z,0.00
2022-09-09T04:30:34.832Z,4.00
2022-09-09T04:31:34.875Z,4.00
2022-09-09T04:32:34.798Z,0.00
2022-09-09T04:33:39.462Z,0.00
2022-09-09T04:34:35.787Z,4.00
2022-09-09T04:35:34.771Z,4.00
2022-09-09T04:36:34.775Z,0.00
2022-09-09T04:37:34.766Z,4.00
2022-09-09T04:38:34.730Z,4.00
2022-09-09T04:39:34.768Z,8.00
2022-09-09T04:40:34.710Z,4.00
2022-09-09T04:41:34.718Z,8.00
2022-09-09T04:42:34.691Z,4.00
2022-09-09T04:43:34.699Z,8.00
2022-09-09T04:44:34.660Z,8.00
2022-09-09T04:45:34.757Z,8.00
2022-09-09T04:46:34.678Z,12.00
2022-09-09T04:47:34.659Z,12.00
2022-09-09T04:48:34.666Z,16.00
2022-09-09T04:49:34.618Z,16.00
2022-09-09T04:50:34.602Z,20.00
2022-09-09T04:51:34.603Z,20.00
2022-09-09T04:52:34.602Z,20.00
2022-09-09T04:53:34.570Z,20.00
2022-09-09T04:54:34.550Z,20.00
2022-09-09T04:55:34.551Z,20.00
2022-09-09T04:56:34.523Z,20.00
2022-09-09T04:57:34.542Z,20.00
2022-09-09T04:58:34.588Z,24.00
2022-09-09T04:59:34.511Z,24.00
2022-09-09T05:00:34.525Z,28.00
2022-09-09T05:01:34.483Z,24.00
2022-09-09T05:02:34.545Z,24.00
2022-09-09T05:03:34.463Z,28.00
2022-09-09T05:04:34.435Z,32.00
2022-09-09T05:05:34.444Z,32.00
2022-09-09T05:06:41.727Z,32.00
2022-09-09T05:07:34.418Z,32.00
2022-09-09T05:08:34.450Z,40.00
2022-09-09T05:09:34.387Z,36.00
2022-09-09T05:10:34.406Z,44.00
2022-09-09T05:11:34.367Z,44.00
2022-09-09T05:12:34.379Z,48.00
2022-09-09T05:13:37.326Z,52.00
2022-09-09T05:14:35.327Z,56.00
2022-09-09T05:15:34.375Z,60.00
2022-09-09T05:16:34.586Z,60.00
2022-09-09T05:17:34.408Z,68.00
2022-09-09T05:18:34.413Z,72.00
2022-09-09T05:19:34.459Z,76.00
2022-09-09T05:20:34.408Z,80.00
2022-09-09T05:21:34.411Z,84.00
2022-09-09T05:22:34.440Z,88.00
2022-09-09T05:23:34.440Z,96.00
2022-09-09T05:24:34.435Z,100.00
2022-09-09T05:25:34.431Z,112.00
2022-09-09T05:26:34.587Z,124.00
2022-09-09T05:27:34.492Z,136.00
2022-09-09T05:28:41.232Z,148.00
2022-09-09T05:29:34.165Z,152.00
2022-09-09T05:30:34.131Z,160.00
2022-09-09T05:31:34.236Z,172.00
2022-09-09T05:32:34.184Z,188.00
2022-09-09T05:33:34.126Z,196.00
2022-09-09T05:34:34.092Z,212.00
2022-09-09T05:35:34.124Z,220.00
2022-09-09T05:36:34.072Z,232.00
2022-09-09T05:37:34.171Z,252.00
2022-09-09T05:38:34.050Z,268.00
2022-09-09T05:39:34.094Z,284.00
2022-09-09T05:40:34.023Z,296.00
2022-09-09T05:41:34.026Z,304.00
2022-09-09T05:42:34.012Z,308.00
2022-09-09T05:43:34.036Z,320.00
2022-09-09T05:44:33.984Z,328.00
2022-09-09T05:45:33.984Z,336.00
2022-09-09T05:46:34.010Z,344.00
2022-09-09T05:47:33.966Z,352.00
2022-09-09T05:48:34.321Z,356.00
2022-09-09T05:49:33.955Z,356.00
2022-09-09T05:50:33.927Z,352.00
2022-09-09T05:51:33.916Z,348.00
2022-09-09T05:52:33.899Z,344.00
2022-09-09T05:53:33.895Z,344.00
2022-09-09T05:54:33.904Z,352.00
2022-09-09T05:55:33.877Z,360.00
2022-09-09T05:56:33.937Z,372.00
2022-09-09T05:57:33.844Z,380.00
2022-09-09T05:58:33.837Z,396.00
2022-09-09T05:59:33.836Z,408.00
2022-09-09T06:00:33.816Z,416.00
2022-09-09T06:01:33.964Z,408.00
2022-09-09T06:02:33.889Z,396.00
2022-09-09T06:03:33.788Z,392.00
2022-09-09T06:04:33.756Z,396.00
2022-09-09T06:05:33.895Z,404.00
2022-09-09T06:06:33.736Z,412.00
2022-09-09T06:07:33.736Z,412.00
2022-09-09T06:08:33.730Z,412.00
2022-09-09T06:09:33.708Z,432.00
2022-09-09T06:10:33.696Z,444.00
2022-09-09T06:11:33.708Z,460.00
2022-09-09T06:12:33.668Z,460.00
2022-09-09T06:13:33.679Z,456.00
2022-09-09T06:14:33.648Z,452.00
2022-09-09T06:15:33.650Z,444.00
2022-09-09T06:16:33.815Z,436.00
2022-09-09T06:17:33.624Z,440.00
2022-09-09T06:18:33.662Z,452.00
2022-09-09T06:19:33.612Z,484.00
2022-09-09T06:20:33.588Z,520.00
2022-09-09T06:21:33.629Z,564.00
2022-09-09T06:22:33.548Z,592.00
2022-09-09T06:23:33.560Z,608.00
2022-09-09T06:24:33.532Z,604.00
2022-09-09T06:25:33.540Z,592.00
2022-09-09T06:26:33.528Z,572.00
2022-09-09T06:27:33.509Z,556.00
2022-09-09T06:28:33.489Z,548.00
2022-09-09T06:29:33.505Z,540.00
2022-09-09T06:30:33.472Z,540.00
2022-09-09T06:31:33.514Z,552.00
2022-09-09T06:32:33.446Z,576.00
2022-09-09T06:33:33.441Z,600.00
2022-09-09T06:34:33.420Z,616.00
2022-09-09T06:35:33.413Z,632.00
2022-09-09T06:36:33.413Z,644.00
2022-09-09T06:37:33.400Z,648.00
2022-09-09T06:38:33.476Z,648.00
2022-09-09T06:39:33.405Z,648.00
2022-09-09T06:40:33.360Z,648.00
2022-09-09T06:41:33.352Z,636.00
2022-09-09T06:42:33.341Z,624.00
2022-09-09T06:43:33.344Z,604.00
2022-09-09T06:44:35.244Z,576.00
2022-09-09T06:45:33.305Z,568.00
2022-09-09T06:46:33.349Z,572.00
2022-09-09T06:47:33.305Z,592.00
2022-09-09T06:48:33.363Z,612.00
2022-09-09T06:49:33.285Z,628.00
2022-09-09T06:50:33.244Z,656.00
2022-09-09T06:51:33.244Z,668.00
2022-09-09T06:52:33.245Z,684.00
2022-09-09T06:53:33.225Z,676.00
2022-09-09T06:54:33.197Z,664.00
2022-09-09T06:55:33.196Z,660.00
2022-09-09T06:56:33.182Z,672.00
2022-09-09T06:57:37.372Z,684.00
2022-09-09T06:58:33.226Z,680.00
2022-09-09T06:59:33.153Z,684.00
2022-09-09T07:00:33.173Z,684.00
2022-09-09T07:01:33.155Z,692.00
2022-09-09T07:02:33.117Z,704.00
2022-09-09T07:03:33.118Z,720.00
2022-09-09T07:04:33.093Z,744.00
2022-09-09T07:05:33.097Z,772.00
2022-09-09T07:06:33.065Z,792.00
2022-09-09T07:07:33.057Z,820.00
2022-09-09T07:08:33.053Z,848.00
2022-09-09T07:09:33.081Z,872.00
2022-09-09T07:10:33.038Z,888.00
2022-09-09T07:11:33.013Z,908.00
2022-09-09T07:12:32.997Z,928.00
2022-09-09T07:13:32.993Z,948.00
2022-09-09T07:14:32.986Z,964.00
2022-09-09T07:15:32.958Z,988.00
2022-09-09T07:16:32.991Z,1004.00
2022-09-09T07:17:32.966Z,1024.00
2022-09-09T07:18:32.986Z,1044.00
2022-09-09T07:19:32.937Z,1064.00
2022-09-09T07:20:32.917Z,1088.00
2022-09-09T07:21:32.915Z,1116.00
2022-09-09T07:22:32.890Z,1148.00
2022-09-09T07:23:36.125Z,1188.00
2022-09-09T07:24:32.869Z,1216.00
2022-09-09T07:25:32.886Z,1244.00
2022-09-09T07:26:32.858Z,1268.00
2022-09-09T07:27:32.830Z,1296.00
2022-09-09T07:28:32.873Z,1316.00
2022-09-09T07:29:32.809Z,1344.00
2022-09-09T07:30:32.809Z,1388.00
2022-09-09T07:31:32.814Z,1432.00
2022-09-09T07:32:32.781Z,1432.00
2022-09-09T07:33:32.800Z,1456.00
2022-09-09T07:34:32.767Z,1480.00
2022-09-09T07:35:32.750Z,1440.00
2022-09-09T07:36:33.733Z,1468.00
2022-09-09T07:37:32.781Z,1512.00
2022-09-09T07:38:32.795Z,1540.00
2022-09-09T07:39:32.733Z,1544.00
2022-09-09T07:40:32.689Z,1552.00
2022-09-09T07:41:32.682Z,1544.00
2022-09-09T07:42:32.674Z,1524.00
2022-09-09T07:43:32.649Z,1516.00
2022-09-09T07:44:32.649Z,1528.00
2022-09-09T07:45:32.642Z,1492.00
2022-09-09T07:46:32.671Z,1492.00
2022-09-09T07:47:32.621Z,1488.00
2022-09-09T07:48:32.640Z,1476.00
2022-09-09T07:49:33.072Z,1476.00
2022-09-09T07:50:32.594Z,1448.00
2022-09-09T07:51:32.561Z,1424.00
2022-09-09T07:52:32.561Z,1396.00
2022-09-09T07:53:32.579Z,1356.00
2022-09-09T07:54:32.967Z,1340.00
2022-09-09T07:55:32.513Z,1320.00
2022-09-09T07:56:33.688Z,1340.00
2022-09-09T07:57:32.502Z,1372.00
2022-09-09T07:58:37.714Z,1384.00
2022-09-09T07:59:33.487Z,1384.00
2022-09-09T08:00:32.478Z,1404.00
2022-09-09T08:01:32.509Z,1456.00
2022-09-09T08:02:32.454Z,1512.00
2022-09-09T08:03:32.426Z,1580.00
2022-09-09T08:04:32.426Z,1616.00
2022-09-09T08:05:32.415Z,1732.00
2022-09-09T08:06:32.405Z,1820.00
2022-09-09T08:07:32.398Z,1852.00
2022-09-09T08:08:32.387Z,1912.00
2022-09-09T08:09:32.376Z,2020.00
2022-09-09T08:10:32.389Z,2084.00
2022-09-09T08:11:36.679Z,2144.00
2022-09-09T08:12:34.897Z,2176.00
2022-09-09T08:13:32.378Z,1964.00
2022-09-09T08:14:32.326Z,1908.00
2022-09-09T08:15:32.298Z,1948.00
2022-09-09T08:16:32.287Z,1908.00
2022-09-09T08:17:32.330Z,1844.00
2022-09-09T08:18:32.266Z,1788.00
2022-09-09T08:19:32.258Z,1648.00
2022-09-09T08:20:32.270Z,1556.00
2022-09-09T08:21:32.230Z,1432.00
2022-09-09T08:22:32.238Z,1428.00
2022-09-09T08:23:32.210Z,1428.00
2022-09-09T08:24:32.204Z,1340.00
2022-09-09T08:25:32.178Z,1248.00
2022-09-09T08:26:32.210Z,1044.00
2022-09-09T08:27:32.178Z,840.00
2022-09-09T08:28:32.157Z,764.00
2022-09-09T08:29:32.139Z,692.00
2022-09-09T08:30:32.136Z,700.00
2022-09-09T08:31:32.123Z,800.00
2022-09-09T08:32:32.290Z,836.00
2022-09-09T08:33:32.109Z,904.00
2022-09-09T08:34:32.098Z,1036.00
2022-09-09T08:35:32.062Z,1084.00
2022-09-09T08:36:32.082Z,1120.00
2022-09-09T08:37:32.063Z,1128.00
2022-09-09T08:38:32.050Z,1184.00
2022-09-09T08:39:32.050Z,1316.00
2022-09-09T08:40:32.022Z,1588.00
2022-09-09T08:41:32.012Z,1928.00
2022-09-09T08:42:32.010Z,2284.00
2022-09-09T08:43:32.173Z,2028.00
2022-09-09T08:44:31.982Z,2024.00
2022-09-09T08:45:31.970Z,1808.00
2022-09-09T08:46:32.776Z,1576.00
2022-09-09T08:47:34.053Z,1352.00
2022-09-09T08:48:31.944Z,1328.00
2022-09-09T08:49:31.914Z,1392.00
2022-09-09T08:50:31.915Z,1388.00
2022-09-09T08:51:31.895Z,1744.00
2022-09-09T08:52:31.903Z,1532.00
2022-09-09T08:53:31.896Z,1936.00
2022-09-09T08:54:50.988Z,1548.00
2022-09-09T08:55:32.843Z,1580.00
2022-09-09T08:56:31.851Z,1608.00
2022-09-09T08:57:31.824Z,1336.00
2022-09-09T08:58:31.835Z,1644.00
2022-09-09T08:59:31.814Z,2156.00
2022-09-09T09:00:31.807Z,2060.00
2022-09-09T09:01:31.871Z,1228.00
2022-09-09T09:02:31.795Z,1284.00
2022-09-09T09:03:31.774Z,1292.00
2022-09-09T09:04:31.820Z,1604.00
2022-09-09T09:05:31.735Z,1412.00
2022-09-09T09:06:31.749Z,1512.00
2022-09-09T09:07:33.019Z,2004.00
2022-09-09T09:08:31.727Z,1336.00
2022-09-09T09:09:31.695Z,1780.00
2022-09-09T09:10:41.780Z,1564.00
2022-09-09T09:11:32.675Z,1552.00
2022-09-09T09:12:31.663Z,1812.00
2022-09-09T09:13:31.667Z,1672.00
2022-09-09T09:14:31.758Z,2004.00
2022-09-09T09:15:32.704Z,1616.00
2022-09-09T09:16:31.627Z,1876.00
2022-09-09T09:17:31.608Z,1460.00
2022-09-09T09:18:31.619Z,1548.00
2022-09-09T09:19:31.587Z,1584.00
2022-09-09T09:20:31.578Z,1392.00
2022-09-09T09:21:31.560Z,1600.00
2022-09-09T09:22:31.559Z,1548.00
2022-09-09T09:23:31.561Z,1584.00
2022-09-09T09:24:31.528Z,1208.00
2022-09-09T09:25:31.512Z,1140.00
2022-09-09T09:26:31.576Z,1520.00
2022-09-09T09:27:31.499Z,1224.00
2022-09-09T09:28:31.511Z,1116.00
2022-09-09T09:29:31.480Z,1288.00
2022-09-09T09:30:31.524Z,1356.00
2022-09-09T09:31:31.499Z,1796.00
2022-09-09T09:32:31.459Z,1332.00
2022-09-09T09:33:31.423Z,1492.00
2022-09-09T09:34:31.443Z,1356.00
2022-09-09T09:35:31.402Z,1388.00
2022-09-09T09:36:31.403Z,1632.00
2022-09-09T09:37:31.602Z,1740.00
2022-09-09T09:40:32.375Z,1760.00
2022-09-09T09:41:31.332Z,2060.00
2022-09-09T09:42:31.323Z,2088.00
2022-09-09T09:43:31.311Z,2440.00
2022-09-09T09:44:31.325Z,2504.00
2022-09-09T09:45:31.291Z,2176.00
2022-09-09T09:46:31.345Z,2392.00
2022-09-09T09:47:31.275Z,2580.00
2022-09-09T09:48:31.296Z,2652.00
2022-09-09T09:49:31.255Z,2592.00
2022-09-09T09:50:31.256Z,1988.00
2022-09-09T09:51:31.235Z,2456.00
2022-09-09T09:52:31.226Z,2888.00
2022-09-09T09:53:31.224Z,2348.00
2022-09-09T09:54:31.203Z,2316.00
2022-09-09T09:55:31.183Z,2952.00
2022-09-09T09:56:31.226Z,2940.00
2022-09-09T09:57:31.169Z,2956.00
2022-09-09T09:58:31.168Z,2948.00
2022-09-09T09:59:40.002Z,2868.00
2022-09-09T10:00:32.135Z,2188.00
2022-09-09T10:01:31.906Z,2560.00
2022-09-09T10:02:31.108Z,2856.00
2022-09-09T10:03:31.096Z,3148.00
2022-09-09T10:04:31.142Z,3156.00
2022-09-09T10:05:35.810Z,2868.00
2022-09-09T10:06:32.135Z,3156.00
2022-09-09T10:07:31.041Z,1912.00
2022-09-09T10:08:31.049Z,1728.00
2022-09-09T10:09:31.049Z,2388.00
2022-09-09T10:10:31.028Z,2504.00
2022-09-09T10:11:31.007Z,2492.00
2022-09-09T10:12:31.035Z,2580.00
2022-09-09T10:13:30.991Z,2628.00
2022-09-09T10:14:30.999Z,2540.00
2022-09-09T10:15:30.993Z,2448.00
2022-09-09T10:16:30.960Z,2360.00
2022-09-09T10:17:30.972Z,2336.00
2022-09-09T10:18:30.952Z,2292.00
2022-09-09T10:19:30.912Z,2308.00
2022-09-09T10:20:30.920Z,2516.00
2022-09-09T10:21:33.253Z,1512.00
2022-09-09T10:22:30.895Z,1420.00
2022-09-09T10:23:30.909Z,2412.00
2022-09-09T10:24:30.872Z,2096.00
2022-09-09T10:25:30.860Z,1956.00
2022-09-09T10:26:30.856Z,1908.00
2022-09-09T10:27:30.825Z,1920.00
2022-09-09T10:28:30.824Z,1504.00
2022-09-09T10:29:30.815Z,2064.00
2022-09-09T10:30:30.812Z,2224.00
2022-09-09T10:31:30.819Z,2260.00
2022-09-09T10:32:30.784Z,2356.00
2022-09-09T10:33:32.655Z,2364.00
2022-09-09T10:34:31.615Z,2416.00
2022-09-09T10:35:30.752Z,2540.00
2022-09-09T10:36:30.739Z,2652.00
2022-09-09T10:37:30.704Z,2688.00
2022-09-09T10:38:30.705Z,2836.00
2022-09-09T10:39:30.713Z,2796.00
2022-09-09T10:40:30.697Z,2884.00
2022-09-09T10:41:30.669Z,3024.00
2022-09-09T10:42:30.677Z,3024.00
2022-09-09T10:43:30.644Z,2904.00
2022-09-09T10:44:30.644Z,2708.00
2022-09-09T10:45:30.649Z,2408.00
2022-09-09T10:46:30.715Z,1480.00
2022-09-09T10:47:30.596Z,2672.00
2022-09-09T10:48:30.597Z,2660.00
2022-09-09T10:49:30.642Z,2620.00
2022-09-09T10:50:50.373Z,2748.00
2022-09-09T10:51:31.569Z,2596.00
2022-09-09T10:52:30.584Z,3116.00
2022-09-09T10:53:30.536Z,3096.00
2022-09-09T10:54:30.531Z,3080.00
2022-09-09T10:55:30.508Z,2252.00
2022-09-09T10:56:30.528Z,2020.00
2022-09-09T10:57:30.501Z,2852.00
2022-09-09T10:58:30.490Z,2740.00
2022-09-09T10:59:30.470Z,2656.00
2022-09-09T11:00:30.469Z,1720.00
2022-09-09T11:01:30.511Z,1548.00
2022-09-09T11:02:30.453Z,1588.00
2022-09-09T11:03:30.430Z,2200.00
2022-09-09T11:04:30.441Z,2400.00
2022-09-09T11:05:30.413Z,1204.00
2022-09-09T11:06:30.450Z,1376.00
2022-09-09T11:07:30.385Z,2060.00
2022-09-09T11:08:30.393Z,1656.00
2022-09-09T11:09:30.375Z,3168.00
2022-09-09T11:10:30.361Z,3228.00
2022-09-09T11:11:30.340Z,3616.00
2022-09-09T11:12:30.333Z,4024.00
2022-09-09T11:13:30.313Z,3964.00
2022-09-09T11:14:34.053Z,3648.00
2022-09-09T11:15:31.298Z,2224.00
2022-09-09T11:16:30.340Z,2008.00
2022-09-09T11:17:30.273Z,1776.00
2022-09-09T11:18:30.385Z,2812.00
2022-09-09T11:19:30.277Z,2648.00
2022-09-09T11:20:30.245Z,3400.00
2022-09-09T11:21:37.297Z,3856.00
2022-09-09T11:22:30.229Z,2516.00
2022-09-09T11:23:30.229Z,2304.00
2022-09-09T11:24:30.209Z,2236.00
2022-09-09T11:25:30.209Z,2292.00
2022-09-09T11:26:30.197Z,2492.00
2022-09-09T11:27:30.189Z,2572.00
2022-09-09T11:28:30.202Z,2728.00
2022-09-09T11:29:30.161Z,3960.00
2022-09-09T11:30:54.971Z,2560.00
2022-09-09T11:31:31.164Z,2616.00
2022-09-09T11:32:30.129Z,3288.00
2022-09-09T11:33:30.113Z,3284.00
2022-09-09T11:34:30.132Z,3416.00
2022-09-09T11:35:30.133Z,3328.00
2022-09-09T11:36:37.243Z,2384.00
2022-09-09T11:37:30.069Z,3580.00
2022-09-09T11:38:30.106Z,3628.00
2022-09-09T11:39:30.074Z,2804.00
2022-09-09T11:40:30.030Z,3512.00
2022-09-09T11:41:30.050Z,3700.00
2022-09-09T11:42:30.021Z,3628.00
2022-09-09T11:43:30.012Z,2112.00
2022-09-09T11:44:30.041Z,1952.00
2022-09-09T11:45:29.982Z,1840.00
2022-09-09T11:46:30.011Z,1948.00
2022-09-09T11:47:29.981Z,1760.00
2022-09-09T11:48:29.942Z,1904.00
2022-09-09T11:49:29.942Z,2008.00
2022-09-09T11:50:29.926Z,1928.00
2022-09-09T11:51:29.922Z,2624.00
2022-09-09T11:52:29.910Z,3172.00
2022-09-09T11:53:29.895Z,3240.00
2022-09-09T11:54:29.889Z,1916.00
2022-09-09T11:55:29.876Z,3104.00
2022-09-09T11:56:29.849Z,3244.00
2022-09-09T11:57:29.853Z,3200.00
2022-09-09T11:58:29.847Z,3212.00
2022-09-09T11:59:29.829Z,3320.00
2022-09-09T12:00:29.807Z,3264.00
2022-09-09T12:01:29.821Z,3284.00
2022-09-09T12:02:29.826Z,3404.00
2022-09-09T12:03:29.801Z,3272.00
2022-09-09T12:04:29.985Z,2148.00
2022-09-09T12:05:29.782Z,2168.00
2022-09-09T12:06:29.755Z,2136.00
2022-09-09T12:07:29.758Z,2120.00
2022-09-09T12:08:29.777Z,2160.00
2022-09-09T12:09:29.725Z,2664.00
2022-09-09T12:10:29.707Z,3660.00
2022-09-09T12:11:29.696Z,3684.00
2022-09-09T12:12:29.694Z,3704.00
2022-09-09T12:13:29.698Z,3060.00
2022-09-09T12:14:29.654Z,3728.00
2022-09-09T12:15:29.658Z,2408.00
2022-09-09T12:16:29.676Z,2388.00
2022-09-09T12:17:29.627Z,2364.00
2022-09-09T12:18:29.688Z,3340.00
2022-09-09T12:19:29.607Z,2184.00
2022-09-09T12:20:29.598Z,2184.00
2022-09-09T12:21:29.590Z,2044.00
2022-09-09T12:22:29.604Z,1944.00
2022-09-09T12:23:30.606Z,1964.00
2022-09-09T12:24:29.554Z,1960.00
2022-09-09T12:25:29.550Z,1960.00
2022-09-09T12:26:29.526Z,2040.00
2022-09-09T12:27:29.845Z,2108.00
2022-09-09T12:28:29.531Z,2204.00
2022-09-09T12:29:30.452Z,2416.00
2022-09-09T12:30:29.519Z,3468.00
2022-09-09T12:31:29.495Z,3976.00
2022-09-09T12:32:29.493Z,3840.00
2022-09-09T12:33:29.510Z,3612.00
2022-09-09T12:34:29.543Z,3376.00
2022-09-09T12:35:29.574Z,3208.00
2022-09-09T12:36:29.612Z,3176.00
2022-09-09T12:37:29.624Z,3120.00
2022-09-09T12:38:29.498Z,3104.00
2022-09-09T12:39:29.611Z,3164.00